Time;durP1;ratioP1;P1;durP2;ratioP2;P2;SDS_P1;SDS_P2;PMS_P1;PMS_P2;Temp;Humidity;BMP_temperature;BMP_pressure;BME280_temperature;BME280_humidity;BME280_pressure;Samples;Min_cycle;Max_cycle;Signal;HPM_P1;HPM_P2
2022/10/06 00:01:36;;;;;;;2.13;1.45;;;16.90;71.40;;;;;;5023082;28;20091;-52
2022/10/06 00:04:04;;;;;;;0.88;0.52;;;16.90;71.40;;;;;;5023411;28;20072;-49
2022/10/06 00:06:31;;;;;;;2.28;0.75;;;16.90;71.40;;;;;;5030292;28;20037;-52
2022/10/06 00:09:00;;;;;;;2.95;1.10;;;16.90;71.70;;;;;;5014403;28;20072;-46
2022/10/06 00:11:29;;;;;;;1.13;1.02;;;16.80;71.70;;;;;;5019543;28;20140;-50
2022/10/06 00:13:58;;;;;;;2.13;1.50;;;16.80;71.90;;;;;;4991017;28;20486;-52
2022/10/06 00:16:25;;;;;;;2.05;1.23;;;16.80;71.80;;;;;;5005517;28;20387;-49
2022/10/06 00:18:57;;;;;;;2.13;1.20;;;16.80;71.80;;;;;;5009381;28;20092;-48
2022/10/06 00:21:24;;;;;;;1.50;1.40;;;16.80;71.80;;;;;;5005272;28;20046;-50
2022/10/06 00:23:50;;;;;;;2.60;0.80;;;16.80;71.70;;;;;;5015587;28;20502;-48
2022/10/06 00:26:17;;;;;;;2.17;0.90;;;16.80;71.60;;;;;;5014177;28;20049;-51
2022/10/06 00:28:49;;;;;;;2.95;0.93;;;16.70;71.60;;;;;;5009297;28;20413;-51
2022/10/06 00:31:19;;;;;;;2.92;1.08;;;16.70;72.10;;;;;;5022462;28;20038;-51
2022/10/06 00:33:47;;;;;;;4.00;1.10;;;16.70;71.80;;;;;;5015056;28;20041;-47
2022/10/06 00:36:14;;;;;;;5.22;1.00;;;16.70;72.00;;;;;;5005796;28;20049;-49
2022/10/06 00:38:44;;;;;;;2.33;1.10;;;16.70;71.90;;;;;;5022958;28;20053;-52
2022/10/06 00:41:15;;;;;;;4.88;1.40;;;16.70;71.90;;;;;;5025683;28;20060;-47
2022/10/06 00:44:11;;;;;;;2.72;0.95;;;16.60;72.10;;;;;;5028177;28;20129;-48
2022/10/06 00:46:50;;;;;;;4.25;1.20;;;16.70;72.40;;;;;;5008517;28;20041;-52
2022/10/06 00:49:29;;;;;;;2.03;1.02;;;16.70;72.50;;;;;;5020041;28;20045;-51
2022/10/06 00:52:05;;;;;;;1.45;1.08;;;16.60;72.70;;;;;;5013592;28;20124;-49
2022/10/06 00:54:36;;;;;;;5.22;1.20;;;16.70;72.80;;;;;;5011078;28;20133;-52
2022/10/06 00:57:06;;;;;;;2.78;0.88;;;16.60;72.40;;;;;;5022313;28;20113;-52
2022/10/06 00:59:33;;;;;;;2.03;0.88;;;16.60;72.80;;;;;;5025097;28;20051;-50
2022/10/06 01:02:12;;;;;;;3.65;1.00;;;16.60;73.00;;;;;;5016078;28;20425;-47
2022/10/06 01:04:45;;;;;;;4.07;1.10;;;16.70;73.70;;;;;;5002918;28;20046;-48
2022/10/06 01:07:12;;;;;;;2.83;1.15;;;16.70;73.20;;;;;;5026366;28;20038;-50
2022/10/06 01:09:39;;;;;;;3.00;1.10;;;16.60;73.00;;;;;;5013402;28;20421;-50
2022/10/06 01:12:07;;;;;;;3.13;0.93;;;16.70;73.10;;;;;;5015422;28;20041;-50
2022/10/06 01:14:36;;;;;;;2.17;1.10;;;16.70;73.20;;;;;;4994568;28;20134;-49
2022/10/06 01:17:20;;;;;;;3.17;1.38;;;16.60;73.20;;;;;;5004855;28;20060;-50
2022/10/06 01:19:52;;;;;;;3.00;1.15;;;16.70;73.80;;;;;;4988621;28;20502;-51
2022/10/06 01:22:29;;;;;;;2.25;1.15;;;16.70;73.40;;;;;;5010393;28;20421;-50
2022/10/06 01:24:59;;;;;;;4.07;1.77;;;16.70;73.40;;;;;;5002499;28;20052;-52
2022/10/06 01:27:30;;;;;;;3.30;1.30;;;16.60;72.70;;;;;;4993526;28;20055;-52
2022/10/06 01:30:00;;;;;;;2.20;1.15;;;16.60;72.70;;;;;;4996984;28;20137;-47
2022/10/06 01:32:32;;;;;;;1.80;1.55;;;16.60;73.40;;;;;;4998342;28;20133;-48
2022/10/06 01:35:07;;;;;;;2.92;1.17;;;16.60;73.60;;;;;;4979210;28;20091;-51
2022/10/06 01:37:34;;;;;;;4.57;1.58;;;16.60;73.20;;;;;;5007181;28;20041;-50
2022/10/06 01:40:03;;;;;;;4.80;2.45;;;16.60;73.00;;;;;;5006595;28;20133;-50
2022/10/06 01:42:31;;;;;;;2.90;1.33;;;16.50;72.90;;;;;;5013674;28;20057;-51
2022/10/06 01:45:01;;;;;;;4.35;1.60;;;16.50;72.60;;;;;;4987950;28;20050;-50
2022/10/06 01:47:35;;;;;;;3.95;1.73;;;16.50;72.50;;;;;;4995509;28;20050;-52
2022/10/06 01:50:04;;;;;;;7.00;1.08;;;16.50;72.20;;;;;;5009224;28;20044;-50
2022/10/06 01:52:31;;;;;;;3.58;1.00;;;16.50;72.00;;;;;;5015035;28;20049;-47
2022/10/06 01:55:00;;;;;;;5.03;1.17;;;16.40;72.00;;;;;;5002688;28;20038;-47
2022/10/06 01:57:28;;;;;;;3.83;0.90;;;16.30;71.90;;;;;;5011559;28;20050;-48
2022/10/06 01:59:55;;;;;;;5.70;1.20;;;16.30;71.80;;;;;;4996878;28;20702;-48
2022/10/06 02:02:22;;;;;;;4.85;1.48;;;16.20;71.60;;;;;;5018359;28;20452;-51
2022/10/06 02:04:49;;;;;;;2.20;1.00;;;16.20;71.50;;;;;;5023911;28;20045;-47
2022/10/06 02:07:21;;;;;;;6.28;1.50;;;16.10;71.50;;;;;;5014657;28;20072;-51
2022/10/06 02:09:48;;;;;;;4.30;0.90;;;16.10;71.80;;;;;;4994990;28;20065;-50
2022/10/06 02:12:18;;;;;;;5.03;1.20;;;16.00;71.70;;;;;;5020692;28;20040;-50
2022/10/06 02:14:45;;;;;;;4.30;1.40;;;15.90;71.60;;;;;;5006009;28;20045;-50
2022/10/06 02:17:12;;;;;;;2.90;1.13;;;15.90;71.80;;;;;;5018182;28;20439;-48
2022/10/06 02:19:38;;;;;;;2.47;1.10;;;15.90;72.00;;;;;;4987759;28;20133;-48
2022/10/06 02:22:05;;;;;;;3.72;1.00;;;15.90;72.20;;;;;;5020253;28;20049;-50
2022/10/06 02:24:32;;;;;;;3.15;0.93;;;15.80;72.10;;;;;;5006769;28;20060;-50
2022/10/06 02:26:59;;;;;;;3.00;1.13;;;15.80;72.00;;;;;;5002899;28;20034;-51
2022/10/06 02:29:26;;;;;;;4.05;1.17;;;15.80;71.70;;;;;;4993311;28;20061;-52
2022/10/06 02:31:54;;;;;;;3.13;1.08;;;15.80;71.90;;;;;;5022484;28;20252;-51
2022/10/06 02:34:21;;;;;;;4.38;0.98;;;15.80;71.80;;;;;;5009121;28;20041;-52
2022/10/06 02:36:48;;;;;;;2.92;0.80;;;15.70;72.20;;;;;;5013330;28;20731;-48
2022/10/06 02:39:15;;;;;;;4.95;1.30;;;15.70;71.60;;;;;;5000090;28;20119;-49
2022/10/06 02:41:42;;;;;;;3.75;1.27;;;15.70;71.70;;;;;;5004010;28;20052;-52
2022/10/06 02:44:08;;;;;;;4.05;1.35;;;15.70;71.70;;;;;;5013637;28;20087;-51
2022/10/06 02:46:37;;;;;;;4.25;0.85;;;15.60;71.60;;;;;;4982925;28;20543;-49
2022/10/06 02:49:04;;;;;;;3.63;1.30;;;15.60;71.70;;;;;;4992459;28;20045;-50
2022/10/06 02:51:33;;;;;;;6.47;1.15;;;15.50;71.50;;;;;;5019262;28;20046;-48
2022/10/06 02:54:00;;;;;;;4.55;1.10;;;15.50;71.60;;;;;;5031551;28;20084;-48
2022/10/06 02:56:26;;;;;;;2.17;1.10;;;15.50;71.70;;;;;;5008403;28;20117;-51
2022/10/06 02:58:53;;;;;;;5.28;1.40;;;15.50;71.70;;;;;;5019432;28;20037;-51
2022/10/06 03:01:27;;;;;;;4.45;1.10;;;15.50;71.60;;;;;;5009174;28;20069;-50
2022/10/06 03:03:58;;;;;;;3.58;1.17;;;15.40;72.20;;;;;;5007552;28;20040;-50
2022/10/06 03:06:29;;;;;;;3.67;1.10;;;15.40;71.30;;;;;;4997352;28;20575;-47
2022/10/06 03:09:22;;;;;;;7.70;0.98;;;15.40;71.30;;;;;;5014875;28;20461;-49
2022/10/06 03:11:50;;;;;;;4.18;1.05;;;15.40;71.30;;;;;;5030110;28;20076;-47
2022/10/06 03:14:31;;;;;;;6.57;1.42;;;15.40;71.40;;;;;;4998821;28;20051;-48
2022/10/06 03:16:58;;;;;;;4.47;1.20;;;15.30;71.10;;;;;;5019801;28;20408;-51
2022/10/06 03:19:27;;;;;;;4.18;1.63;;;15.40;71.10;;;;;;5005493;28;20046;-50
2022/10/06 03:21:56;;;;;;;4.47;1.67;;;15.30;71.20;;;;;;4991811;28;20528;-48
2022/10/06 03:24:37;;;;;;;4.97;1.17;;;15.30;71.30;;;;;;5009375;28;20107;-47
2022/10/06 03:27:04;;;;;;;3.92;1.38;;;15.20;71.10;;;;;;4997518;28;20409;-48
2022/10/06 03:29:30;;;;;;;5.78;1.10;;;15.20;70.90;;;;;;5022109;28;20049;-47
2022/10/06 03:32:02;;;;;;;5.82;1.23;;;15.20;71.10;;;;;;5030728;28;20111;-47
2022/10/06 03:34:29;;;;;;;2.47;0.83;;;15.20;71.20;;;;;;4991422;28;20043;-48
2022/10/06 03:36:58;;;;;;;5.18;1.45;;;15.10;70.90;;;;;;5009948;28;20052;-50
2022/10/06 03:39:25;;;;;;;6.25;2.20;;;15.10;70.80;;;;;;5009074;28;20045;-49
2022/10/06 03:41:52;;;;;;;6.72;1.23;;;15.10;70.80;;;;;;5008716;28;20041;-48
2022/10/06 03:44:21;;;;;;;6.40;1.63;;;15.10;70.80;;;;;;5007480;28;20034;-49
2022/10/06 03:46:48;;;;;;;4.85;1.30;;;15.00;70.50;;;;;;5004636;28;20033;-47
2022/10/06 03:49:14;;;;;;;3.97;1.00;;;15.10;70.50;;;;;;5023447;28;20529;-51
2022/10/06 03:51:42;;;;;;;3.40;1.00;;;15.00;70.40;;;;;;5000053;28;20053;-51
2022/10/06 03:54:17;;;;;;;2.70;0.95;;;15.00;70.40;;;;;;4999080;28;20033;-48
2022/10/06 03:56:48;;;;;;;3.92;1.48;;;15.00;70.20;;;;;;5004363;28;20045;-50
2022/10/06 03:59:16;;;;;;;4.00;1.05;;;14.90;69.90;;;;;;4991250;28;20060;-49
2022/10/06 04:01:46;;;;;;;6.15;2.00;;;14.90;69.80;;;;;;5009009;28;20054;-47
2022/10/06 04:04:21;;;;;;;3.58;1.77;;;14.90;70.00;;;;;;5010774;28;20038;-48
2022/10/06 04:06:52;;;;;;;3.47;1.38;;;14.90;70.20;;;;;;5011873;28;20142;-50
2022/10/06 04:09:20;;;;;;;7.30;1.42;;;14.80;69.90;;;;;;4990826;28;20065;-48
2022/10/06 04:11:51;;;;;;;3.47;1.20;;;14.80;69.90;;;;;;4990399;28;20045;-49
2022/10/06 04:14:19;;;;;;;4.88;1.15;;;14.80;69.90;;;;;;5017912;28;20048;-48
2022/10/06 04:16:49;;;;;;;12.60;3.85;;;14.80;69.80;;;;;;4994302;28;20046;-48
2022/10/06 04:19:30;;;;;;;10.45;2.33;;;14.80;69.90;;;;;;5026115;28;20455;-52
2022/10/06 04:21:57;;;;;;;9.05;2.20;;;14.80;69.70;;;;;;4985631;28;20414;-47
2022/10/06 04:24:26;;;;;;;6.93;1.60;;;14.70;69.60;;;;;;5000441;28;20085;-47
2022/10/06 04:27:26;;;;;;;7.60;1.73;;;14.70;69.70;;;;;;5048856;22;20046;-46
2022/10/06 04:29:40;;;;;;;3.40;1.33;;;14.70;69.60;;;;;;5009343;28;20046;-46
2022/10/06 04:32:10;;;;;;;10.95;1.45;;;14.70;69.50;;;;;;5009247;28;20042;-46
2022/10/06 04:34:37;;;;;;;8.35;1.67;;;14.60;69.60;;;;;;5008089;28;20465;-47
2022/10/06 04:37:03;;;;;;;6.60;1.85;;;14.60;69.70;;;;;;4994001;28;20074;-47
2022/10/06 04:39:30;;;;;;;7.15;1.58;;;14.60;69.70;;;;;;4989627;28;20046;-49
2022/10/06 04:41:57;;;;;;;5.65;1.50;;;14.60;69.60;;;;;;4991417;28;20048;-50
2022/10/06 04:44:27;;;;;;;8.27;1.40;;;14.50;69.50;;;;;;4987543;28;20039;-51
2022/10/06 04:46:59;;;;;;;8.15;1.75;;;14.50;69.40;;;;;;4988514;28;20042;-50
2022/10/06 04:49:26;;;;;;;10.15;1.92;;;14.50;69.40;;;;;;4988461;28;20066;-49
2022/10/06 04:51:56;;;;;;;8.85;1.90;;;14.50;69.40;;;;;;4991014;28;20402;-49
2022/10/06 04:54:23;;;;;;;4.45;1.38;;;14.50;69.20;;;;;;4986739;28;20753;-47
2022/10/06 04:56:56;;;;;;;6.83;1.63;;;14.40;69.10;;;;;;4988070;28;20038;-47
2022/10/06 05:00:21;;;;;;;4.63;1.70;;;14.40;68.90;;;;;;4983791;28;20138;-48
2022/10/06 05:02:12;;;;;;;2.53;1.00;;;14.40;68.80;;;;;;4986539;28;20515;-50
2022/10/06 05:04:44;;;;;;;8.93;1.95;;;14.40;68.80;;;;;;4990109;28;20105;-49
2022/10/06 05:07:12;;;;;;;5.07;1.20;;;14.30;68.60;;;;;;4992939;28;20770;-47
2022/10/06 05:09:39;;;;;;;6.15;1.58;;;14.30;68.60;;;;;;4991926;28;20309;-46
2022/10/06 05:12:09;;;;;;;4.38;1.70;;;14.30;68.70;;;;;;4989958;28;20038;-48
2022/10/06 05:14:35;;;;;;;5.13;1.63;;;14.30;68.60;;;;;;4994216;28;20042;-53
2022/10/06 05:17:03;;;;;;;7.03;1.88;;;14.30;68.50;;;;;;4991008;28;20129;-49
2022/10/06 05:19:30;;;;;;;6.45;1.10;;;14.20;68.40;;;;;;4989492;28;20113;-53
2022/10/06 05:21:56;;;;;;;5.75;1.48;;;14.30;68.30;;;;;;5006160;28;20050;-47
2022/10/06 05:24:26;;;;;;;4.97;1.20;;;14.20;68.30;;;;;;5005786;28;20050;-51
2022/10/06 05:26:53;;;;;;;8.77;2.22;;;14.20;68.30;;;;;;4996061;28;20050;-46
2022/10/06 05:29:26;;;;;;;6.43;1.63;;;14.20;68.40;;;;;;4972795;28;20125;-49
2022/10/06 05:31:54;;;;;;;6.10;1.40;;;14.20;68.30;;;;;;4998245;28;20567;-48
2022/10/06 05:34:21;;;;;;;6.57;1.98;;;14.20;68.30;;;;;;5004443;28;20148;-50
2022/10/06 05:36:48;;;;;;;8.63;2.67;;;14.20;68.20;;;;;;4989955;28;20470;-51
2022/10/06 05:39:14;;;;;;;5.03;1.50;;;14.10;68.20;;;;;;5001279;28;20046;-52
2022/10/06 05:41:48;;;;;;;5.82;2.25;;;14.10;68.10;;;;;;4993074;28;20450;-52
2022/10/06 05:44:15;;;;;;;6.22;1.52;;;14.10;68.00;;;;;;4986132;28;20061;-51
2022/10/06 05:46:43;;;;;;;5.22;2.25;;;14.10;68.70;;;;;;4983669;28;20554;-51
2022/10/06 05:49:13;;;;;;;9.98;1.85;;;14.10;68.70;;;;;;4988194;28;20534;-51
2022/10/06 05:52:00;;;;;;;9.55;1.58;;;14.00;68.20;;;;;;4982223;28;20059;-52
2022/10/06 05:54:30;;;;;;;9.57;1.90;;;14.00;68.10;;;;;;4979659;28;20117;-53
2022/10/06 05:56:56;;;;;;;3.92;1.48;;;14.00;68.00;;;;;;4989563;28;20096;-51
2022/10/06 05:59:23;;;;;;;6.93;1.98;;;14.00;68.00;;;;;;5013696;28;20070;-51
2022/10/06 06:01:52;;;;;;;8.88;1.63;;;14.00;68.10;;;;;;4979526;28;20069;-51
2022/10/06 06:04:30;;;;;;;8.63;2.13;;;14.00;68.00;;;;;;4983410;28;20058;-51
2022/10/06 06:06:59;;;;;;;7.55;1.83;;;14.00;67.90;;;;;;4993170;28;20449;-51
2022/10/06 06:09:27;;;;;;;7.47;1.50;;;14.00;67.80;;;;;;5009054;28;20052;-47
2022/10/06 06:11:59;;;;;;;6.80;2.17;;;13.90;67.90;;;;;;5007928;28;20042;-48
2022/10/06 06:17:22;;;;;;;5.00;1.83;;;13.90;67.80;;;;;;4996790;28;20751;-47
2022/10/06 06:19:49;;;;;;;4.75;1.52;;;13.90;67.70;;;;;;4989127;28;20050;-49
2022/10/06 06:22:16;;;;;;;10.20;2.17;;;14.00;67.80;;;;;;4990386;28;20088;-48
2022/10/06 06:24:45;;;;;;;6.53;1.40;;;13.90;67.80;;;;;;5006899;28;20042;-49
2022/10/06 06:27:13;;;;;;;9.05;1.90;;;13.90;67.70;;;;;;4996355;28;20281;-49
2022/10/06 06:29:39;;;;;;;18.52;2.53;;;13.90;67.80;;;;;;4999166;28;20034;-49
2022/10/06 06:32:12;;;;;;;6.43;2.20;;;13.90;67.70;;;;;;5000396;28;20073;-52
2022/10/06 06:34:39;;;;;;;9.27;2.42;;;13.90;67.80;;;;;;4985260;28;20034;-50
2022/10/06 06:37:09;;;;;;;9.93;2.08;;;14.00;67.80;;;;;;4986210;28;20038;-53
2022/10/06 06:39:41;;;;;;;7.32;1.60;;;13.90;67.70;;;;;;4980741;28;20097;-50
2022/10/06 06:42:08;;;;;;;5.32;2.25;;;14.00;67.70;;;;;;4981398;28;20042;-47
2022/10/06 06:44:38;;;;;;;7.55;2.40;;;14.00;68.30;;;;;;4991992;28;20046;-51
2022/10/06 06:47:17;;;;;;;8.88;2.53;;;14.00;67.80;;;;;;5008277;28;20046;-48
2022/10/06 06:49:49;;;;;;;7.10;3.17;;;14.00;67.60;;;;;;5010067;28;20056;-47
2022/10/06 06:52:16;;;;;;;4.65;1.90;;;14.00;67.60;;;;;;4991939;28;20120;-47
2022/10/06 06:54:42;;;;;;;9.18;2.67;;;14.00;67.60;;;;;;5007973;28;20069;-52
2022/10/06 06:57:12;;;;;;;7.35;2.42;;;14.10;67.60;;;;;;4991549;28;20046;-49
2022/10/06 06:59:39;;;;;;;10.73;2.15;;;14.10;67.60;;;;;;4985879;28;20138;-51
2022/10/06 07:02:10;;;;;;;6.93;2.28;;;14.10;67.70;;;;;;4995622;28;20046;-48
2022/10/06 07:04:42;;;;;;;9.30;2.05;;;14.10;67.70;;;;;;5008407;28;20245;-51
2022/10/06 07:07:11;;;;;;;12.55;2.85;;;14.10;67.60;;;;;;4991909;28;20215;-50
2022/10/06 07:09:38;;;;;;;6.18;1.80;;;14.20;67.60;;;;;;4985901;28;20049;-47
2022/10/06 07:12:10;;;;;;;5.82;1.63;;;14.20;67.70;;;;;;4995353;28;20045;-51
2022/10/06 07:25:05;;;;;;;9.95;2.08;;;14.20;67.60;;;;;;5009337;28;20080;-49
2022/10/06 07:25:51;;;;;;;6.05;1.95;;;14.30;67.50;;;;;;4989519;28;20038;-50
2022/10/06 07:28:20;;;;;;;8.65;2.92;;;14.30;67.70;;;;;;4987921;28;20041;-46
2022/10/06 07:30:47;;;;;;;7.88;1.92;;;14.40;67.70;;;;;;4998328;28;20046;-48
2022/10/06 07:33:18;;;;;;;10.40;2.22;;;14.40;67.60;;;;;;5008683;28;20038;-51
2022/10/06 07:35:46;;;;;;;9.02;3.10;;;14.40;67.60;;;;;;5004991;28;20038;-47
2022/10/06 07:38:17;;;;;;;7.35;2.42;;;14.40;67.60;;;;;;4991852;28;20042;-47
2022/10/06 07:40:52;;;;;;;;;;;14.50;67.70;;;;;;5003689;28;20413;-47
2022/10/06 07:43:39;;;;;;;10.13;2.75;;;14.60;67.70;;;;;;5008816;28;20012;-46
2022/10/06 07:46:12;;;;;;;7.78;2.08;;;14.60;67.30;;;;;;4999819;28;20038;-49
2022/10/06 07:48:47;;;;;;;9.73;2.72;;;14.60;67.60;;;;;;4990803;28;20043;-50
2022/10/06 07:51:16;;;;;;;7.78;1.70;;;14.60;67.50;;;;;;4993017;28;20069;-51
2022/10/06 07:53:48;;;;;;;6.03;1.85;;;14.70;67.50;;;;;;5008385;28;20096;-50
2022/10/06 07:56:22;;;;;;;4.43;2.30;;;14.70;67.50;;;;;;4987970;28;20046;-51
2022/10/06 07:58:52;;;;;;;7.38;1.95;;;14.80;67.60;;;;;;5001299;28;20141;-49
2022/10/06 08:01:19;;;;;;;5.38;1.67;;;14.80;67.70;;;;;;5009628;28;20521;-48
2022/10/06 08:03:49;;;;;;;9.13;2.38;;;14.80;67.60;;;;;;5003361;28;20042;-49
2022/10/06 08:06:17;;;;;;;9.15;2.10;;;14.80;67.50;;;;;;4988812;28;20049;-51
2022/10/06 08:08:46;;;;;;;8.13;2.20;;;14.90;67.60;;;;;;5007109;28;20053;-47
2022/10/06 08:11:21;;;;;;;10.32;2.95;;;14.90;67.50;;;;;;5009596;28;20088;-49
2022/10/06 08:13:50;;;;;;;5.07;1.67;;;15.00;67.60;;;;;;5007779;28;20487;-50
2022/10/06 08:16:20;;;;;;;8.88;1.85;;;15.00;67.40;;;;;;4989817;28;20092;-47
2022/10/06 08:18:49;;;;;;;17.98;3.38;;;15.00;67.60;;;;;;4995381;28;20046;-46
2022/10/06 08:21:21;;;;;;;6.40;2.00;;;15.10;67.70;;;;;;5009547;28;20054;-50
2022/10/06 08:23:50;;;;;;;10.40;2.55;;;15.20;67.60;;;;;;4991051;28;20073;-47
2022/10/06 08:26:18;;;;;;;9.25;2.60;;;15.20;67.20;;;;;;4992574;28;20580;-50
2022/10/06 08:28:50;;;;;;;7.43;2.03;;;15.30;66.90;;;;;;5007713;28;20049;-47
2022/10/06 08:31:21;;;;;;;9.10;1.80;;;15.30;67.20;;;;;;5010022;28;20038;-48
2022/10/06 08:33:53;;;;;;;6.18;1.90;;;15.40;67.10;;;;;;5006023;28;20503;-46
2022/10/06 08:36:20;;;;;;;6.32;1.80;;;15.40;66.90;;;;;;4998206;28;20057;-46
2022/10/06 08:38:49;;;;;;;7.45;1.92;;;15.40;66.70;;;;;;5012141;28;20053;-52
2022/10/06 08:41:21;;;;;;;5.63;1.60;;;15.50;66.70;;;;;;5013094;28;20121;-48
2022/10/06 08:43:59;;;;;;;7.35;1.38;;;15.50;66.50;;;;;;4995494;28;20554;-50
2022/10/06 08:46:34;;;;;;;4.20;2.22;;;15.60;66.40;;;;;;4988352;28;20060;-49
2022/10/06 08:49:01;;;;;;;9.95;2.13;;;15.60;66.10;;;;;;4985370;28;20047;-47
2022/10/06 08:52:16;;;;;;;7.78;1.40;;;15.70;66.10;;;;;;4977109;28;20035;-53
2022/10/06 08:55:11;;;;;;;11.07;2.30;;;15.80;65.90;;;;;;4971125;28;20113;-49
2022/10/06 08:57:53;;;;;;;6.93;2.17;;;15.80;66.10;;;;;;5012263;28;20132;-50
2022/10/06 09:00:19;;;;;;;8.88;1.77;;;15.80;66.40;;;;;;5013032;28;20046;-48
2022/10/06 09:02:49;;;;;;;7.65;2.03;;;15.80;65.60;;;;;;4984129;28;20125;-48
2022/10/06 09:05:24;;;;;;;9.48;2.05;;;15.90;65.50;;;;;;5001565;28;20048;-46
2022/10/06 09:08:09;;;;;;;8.05;1.63;;;15.90;65.20;;;;;;5010280;28;20054;-48
2022/10/06 09:10:58;;;;;;;8.80;2.17;;;16.00;65.20;;;;;;5007748;28;20125;-47
2022/10/06 09:13:29;;;;;;;8.60;1.52;;;16.10;64.90;;;;;;4996750;28;20149;-45
2022/10/06 09:16:06;;;;;;;7.78;2.13;;;16.10;64.80;;;;;;4990056;28;20442;-53
2022/10/06 09:18:48;;;;;;;6.65;1.80;;;16.10;64.70;;;;;;4987145;28;20046;-52
2022/10/06 09:21:38;;;;;;;6.50;2.35;;;16.20;64.60;;;;;;4986401;28;20046;-50
2022/10/06 09:24:36;;;;;;;8.38;2.05;;;16.20;64.40;;;;;;4983920;28;20046;-52
2022/10/06 09:27:23;;;;;;;4.47;1.58;;;16.30;63.90;;;;;;4991824;28;20050;-52
2022/10/06 09:29:51;;;;;;;8.18;1.70;;;16.30;64.50;;;;;;4990323;28;20050;-51
2022/10/06 09:32:22;;;;;;;4.53;1.38;;;16.30;64.30;;;;;;4986363;28;20082;-48
2022/10/06 09:34:55;;;;;;;5.15;1.90;;;16.40;63.90;;;;;;5010781;28;20048;-55
2022/10/06 09:37:22;;;;;;;;;;;16.50;64.00;;;;;;4997665;28;20042;-54
2022/10/06 09:39:51;;;;;;;7.75;1.70;;;16.50;63.70;;;;;;4991274;28;19928;-49
2022/10/06 09:42:24;;;;;;;5.32;1.25;;;16.60;63.40;;;;;;5001159;28;20042;-51
2022/10/06 09:44:59;;;;;;;5.90;1.50;;;16.60;62.20;;;;;;5008399;28;20392;-52
2022/10/06 09:47:32;;;;;;;4.78;1.40;;;16.60;62.00;;;;;;4987540;28;20113;-50
2022/10/06 09:50:08;;;;;;;9.80;1.20;;;16.70;61.80;;;;;;4996518;28;20498;-55
2022/10/06 09:52:35;;;;;;;5.97;1.23;;;16.70;62.00;;;;;;5011033;28;20038;-51
2022/10/06 09:55:13;;;;;;;5.47;2.50;;;16.70;61.70;;;;;;5011139;28;20046;-49
2022/10/06 09:57:52;;;;;;;6.72;1.35;;;16.80;61.00;;;;;;4998404;28;20050;-51
2022/10/06 10:00:34;;;;;;;6.35;1.17;;;16.80;59.60;;;;;;4992259;28;20592;-50
2022/10/06 10:03:10;;;;;;;3.83;1.13;;;16.90;59.70;;;;;;4995406;28;20046;-50
2022/10/06 10:05:45;;;;;;;4.85;1.50;;;16.90;60.40;;;;;;5011111;28;20057;-49
2022/10/06 10:08:24;;;;;;;7.80;1.42;;;16.90;60.30;;;;;;4995729;28;20069;-53
2022/10/06 10:14:03;;;;;;;4.70;1.13;;;17.00;59.80;;;;;;5010828;28;20054;-52
2022/10/06 10:16:34;;;;;;;5.85;1.17;;;17.00;59.40;;;;;;4990863;28;20042;-49
2022/10/06 10:19:04;;;;;;;4.90;1.15;;;17.10;59.00;;;;;;4988266;28;20042;-50
2022/10/06 10:21:33;;;;;;;7.50;1.15;;;17.10;58.90;;;;;;5006839;28;20050;-53
2022/10/06 10:24:04;;;;;;;4.13;1.40;;;17.10;58.60;;;;;;4978809;28;20046;-49
2022/10/06 10:26:34;;;;;;;6.18;1.42;;;17.20;58.30;;;;;;4987109;28;20062;-49
2022/10/06 10:29:10;;;;;;;5.70;1.52;;;17.20;58.60;;;;;;4999682;28;20049;-51
2022/10/06 10:32:14;;;;;;;5.57;0.98;;;17.30;58.00;;;;;;5007452;28;20041;-50
2022/10/06 10:34:58;;;;;;;4.20;1.50;;;17.30;57.40;;;;;;5010087;28;20041;-49
2022/10/06 10:37:45;;;;;;;6.57;1.75;;;17.30;57.60;;;;;;4986363;28;20586;-50
2022/10/06 10:40:24;;;;;;;5.53;1.08;;;17.40;57.60;;;;;;4995131;28;20042;-53
2022/10/06 10:43:10;;;;;;;3.40;0.82;;;17.40;57.60;;;;;;4992013;28;20069;-52
2022/10/06 10:45:49;;;;;;;4.60;0.90;;;17.40;57.60;;;;;;4991503;28;20054;-55
2022/10/06 10:48:31;;;;;;;2.65;0.82;;;17.50;57.20;;;;;;5002785;28;20041;-52
2022/10/06 10:51:19;;;;;;;2.65;1.10;;;17.60;56.80;;;;;;4996360;28;20056;-49
2022/10/06 10:53:50;;;;;;;4.80;1.33;;;17.60;56.50;;;;;;4985922;28;20403;-53
2022/10/06 10:56:22;;;;;;;3.50;1.02;;;17.60;56.60;;;;;;4988402;28;20428;-54
2022/10/06 10:58:55;;;;;;;4.45;1.77;;;17.70;57.10;;;;;;4991219;28;20038;-52
2022/10/06 11:01:40;;;;;;;12.10;1.67;;;17.70;56.90;;;;;;4992026;28;20049;-53
2022/10/06 11:04:12;;;;;;;5.43;2.35;;;17.70;55.70;;;;;;4984720;28;20038;-54
2022/10/06 11:06:46;;;;;;;4.53;0.80;;;17.70;56.00;;;;;;4987962;28;20046;-52
2022/10/06 11:09:43;;;;;;;5.00;1.30;;;17.80;56.50;;;;;;4984491;28;20434;-51
2022/10/06 11:12:38;;;;;;;7.00;0.80;;;17.80;55.50;;;;;;5010808;28;20495;-52
2022/10/06 11:15:17;;;;;;;1.38;0.65;;;17.80;55.00;;;;;;4995206;28;20375;-51
2022/10/06 11:17:46;;;;;;;4.32;1.00;;;17.90;55.30;;;;;;5002881;28;20052;-52
2022/10/06 11:20:31;;;;;;;4.78;0.70;;;17.90;55.20;;;;;;4998069;28;20058;-50
2022/10/06 11:23:23;;;;;;;4.20;1.00;;;17.90;55.00;;;;;;5014730;23;20062;-49
2022/10/06 11:26:23;;;;;;;3.72;0.60;;;18.00;54.30;;;;;;4991291;28;20042;-50
2022/10/06 11:29:03;;;;;;;4.45;0.90;;;18.00;54.30;;;;;;4991858;28;20088;-50
2022/10/06 11:31:50;;;;;;;3.65;1.08;;;18.10;54.10;;;;;;4988136;28;20043;-50
2022/10/06 11:34:16;;;;;;;4.95;1.70;;;18.00;54.90;;;;;;4988935;28;20039;-50
2022/10/06 11:37:25;;;;;;;3.85;1.00;;;18.10;54.90;;;;;;5009068;28;20402;-48
2022/10/06 11:40:19;;;;;;;3.20;1.02;;;18.10;54.30;;;;;;4989748;28;20035;-49
2022/10/06 11:42:54;;;;;;;3.65;0.98;;;18.20;53.70;;;;;;4986920;28;20137;-50
2022/10/06 11:45:48;;;;;;;6.85;1.83;;;18.20;54.20;;;;;;5008560;28;20045;-50
2022/10/06 11:48:17;;;;;;;8.02;1.70;;;18.20;53.60;;;;;;4972281;28;20047;-49
2022/10/06 11:50:47;;;;;;;3.30;0.93;;;18.30;54.50;;;;;;4972595;28;20051;-48
2022/10/06 11:53:38;;;;;;;4.15;0.88;;;18.30;54.30;;;;;;4991082;28;20041;-49
2022/10/06 11:56:16;;;;;;;3.80;1.08;;;18.30;53.70;;;;;;4989085;28;20398;-49
2022/10/06 11:58:55;;;;;;;3.10;0.90;;;18.40;53.20;;;;;;4985263;28;20122;-49
2022/10/06 12:01:33;;;;;;;3.20;1.10;;;18.40;52.40;;;;;;4993619;28;20048;-50
2022/10/06 12:04:09;;;;;;;3.92;1.73;;;18.40;53.20;;;;;;5008138;28;20038;-49
2022/10/06 12:06:44;;;;;;;5.95;1.08;;;18.50;52.90;;;;;;4986296;28;20043;-49
2022/10/06 12:09:27;;;;;;;4.72;1.35;;;18.50;52.40;;;;;;5006232;28;20046;-48
2022/10/06 12:11:57;;;;;;;4.47;1.08;;;18.50;52.30;;;;;;4998863;28;20038;-53
2022/10/06 12:15:02;;;;;;;6.03;1.15;;;18.60;52.30;;;;;;5007701;28;20126;-53
2022/10/06 12:17:55;;;;;;;2.40;0.70;;;18.60;51.50;;;;;;5003214;28;20655;-50
2022/10/06 12:20:42;;;;;;;6.22;2.22;;;18.70;51.50;;;;;;5013182;28;20122;-52
2022/10/06 12:23:08;;;;;;;4.05;1.13;;;18.70;51.70;;;;;;5000766;28;20047;-54
2022/10/06 12:25:47;;;;;;;5.18;1.05;;;18.80;52.20;;;;;;4995564;28;20038;-53
2022/10/06 12:28:21;;;;;;;6.85;1.30;;;18.80;51.00;;;;;;5005180;28;20070;-53
2022/10/06 12:31:09;;;;;;;5.30;1.30;;;18.90;51.70;;;;;;5002117;28;20050;-53
2022/10/06 12:33:44;;;;;;;3.65;0.82;;;18.90;51.60;;;;;;5014318;28;20038;-50
2022/10/06 12:36:21;;;;;;;3.70;1.08;;;18.90;51.60;;;;;;5014950;28;20049;-53
2022/10/06 12:39:05;;;;;;;1.60;0.70;;;19.00;50.60;;;;;;4998891;28;20118;-50
2022/10/06 12:42:01;;;;;;;3.33;0.70;;;19.10;50.10;;;;;;5000667;28;20044;-52
2022/10/06 12:44:39;;;;;;;1.55;0.43;;;19.20;50.20;;;;;;4998345;28;20133;-54
2022/10/06 12:47:26;;;;;;;3.13;0.57;;;19.20;50.20;;;;;;4980204;28;20399;-50
2022/10/06 12:50:01;;;;;;;2.30;0.52;;;19.20;49.80;;;;;;4999100;28;20042;-52
2022/10/06 12:52:47;;;;;;;2.47;0.70;;;19.30;49.10;;;;;;5011095;28;20487;-51
2022/10/06 12:55:41;;;;;;;3.22;0.80;;;19.30;49.90;;;;;;5000647;28;20034;-51
2022/10/06 12:58:25;;;;;;;2.17;0.57;;;19.30;48.90;;;;;;4984604;28;20046;-51
2022/10/06 13:00:52;;;;;;;2.75;0.63;;;19.40;48.90;;;;;;4985453;28;20039;-52
2022/10/06 13:03:23;;;;;;;1.13;0.50;;;19.40;48.50;;;;;;4991827;28;20046;-52
2022/10/06 13:06:03;;;;;;;2.33;0.60;;;19.50;48.50;;;;;;4989326;28;20092;-53
2022/10/06 13:08:33;;;;;;;3.50;0.90;;;19.50;48.30;;;;;;4991313;28;20050;-53
2022/10/06 13:11:19;;;;;;;5.68;1.10;;;19.60;49.00;;;;;;4985066;28;20492;-51
2022/10/06 13:13:54;;;;;;;3.28;0.82;;;19.70;48.00;;;;;;4984738;28;20053;-50
2022/10/06 13:16:38;;;;;;;3.47;0.80;;;19.70;48.10;;;;;;4987163;28;20050;-52
2022/10/06 13:19:12;;;;;;;2.45;0.70;;;19.70;47.70;;;;;;4978495;28;20570;-50
2022/10/06 13:21:39;;;;;;;4.13;0.60;;;19.80;47.90;;;;;;4976538;28;20038;-53
2022/10/06 13:24:11;;;;;;;1.55;0.50;;;19.90;47.60;;;;;;4982101;28;20038;-52
2022/10/06 13:26:39;;;;;;;2.40;0.60;;;19.90;47.90;;;;;;4991464;28;20054;-54
2022/10/06 13:29:21;;;;;;;2.38;0.63;;;20.00;47.60;;;;;;4999658;28;20181;-54
2022/10/06 13:31:53;;;;;;;4.55;1.08;;;20.10;46.60;;;;;;5013244;28;20084;-52
2022/10/06 13:34:33;;;;;;;1.52;0.63;;;20.30;47.20;;;;;;5000339;28;20443;-53